Flight Track Log - Related Links

Times and Time Zones

All times are in EDT time to prevent confusion due to time zone crossing. See the TRS384 flight status page for this flight to view local times or setup timezone preferences in your user account.

Time Position Orientation Groundspeed Altitude Reporting Facility
EDT Latitude Longitude Course Direction KTS MPH feet Rate Location/Type
Mon 09:00:28 PM 28.4000 -81.3000 139° Southeast 162 186 1,100  Level Orlando TRACON
Mon 09:01:04 PM 28.3833 -81.2833 139° Southeast 217 250 1,600 1,794 Climbing Orlando TRACON
Mon 09:02:05 PM 28.3167 -81.2333 147° Southeast 254 292 4,000 2,231 Climbing Orlando TRACON
Mon 09:03:05 PM 28.3333 -81.1500 77° East 291 335 6,100 2,150 Climbing Orlando TRACON
Mon 09:04:05 PM 28.4167 -81.1500 360° North 318 366 8,300 1,676 Climbing Orlando TRACON
Mon 09:06:04 PM 28.5961 -81.2161 342° North 337 388 11,100 1,508 Climbing Jacksonville Center
Mon 09:07:04 PM 28.7008 -81.2522 343° North 358 412 12,800 1,600 Climbing Jacksonville Center
Mon 09:08:04 PM 28.8078 -81.2861 344° North 383 441 14,300 1,550 Climbing Jacksonville Center
Mon 09:09:04 PM 28.9189 -81.3247 343° North 402 463 15,900 1,700 Climbing Jacksonville Center
Mon 09:10:04 PM 29.0300 -81.3656 342° North 418 481 17,700 1,650 Climbing Jacksonville Center
Mon 09:11:04 PM 29.1472 -81.3922 349° North 423 487 19,200 1,450 Climbing Jacksonville Center
Mon 09:12:04 PM 29.2706 -81.4072 354° North 435 501 20,600 1,350 Climbing Jacksonville Center
Mon 09:13:04 PM 29.3936 -81.4194 355° North 447 514 21,900 1,250 Climbing Jacksonville Center
Mon 09:14:04 PM 29.5067 -81.4297 355° North 447 514 23,100 1,150 Climbing Jacksonville Center
Mon 09:15:04 PM 29.6361 -81.4447 354° North 453 521 24,200 1,100 Climbing Jacksonville Center
Mon 09:16:04 PM 29.7719 -81.4450 360° North 466 536 25,300 950 Climbing Jacksonville Center
Mon 09:17:04 PM 29.9056 -81.4431 North 471 542 26,100 950 Climbing Jacksonville Center
Mon 09:18:04 PM 30.0411 -81.4433 360° North 478 550 27,200 1,050 Climbing Jacksonville Center
Mon 09:19:04 PM 30.1789 -81.4414 North 478 550 28,200 1,100 Climbing Jacksonville Center
Mon 09:20:04 PM 30.3167 -81.4417 360° North 478 550 29,400 1,200 Climbing Jacksonville Center
Mon 09:21:04 PM 30.4525 -81.4394 North 478 550 30,600 1,150 Climbing Jacksonville Center
Mon 09:22:04 PM 30.5903 -81.4397 360° North 478 550 31,700 1,100 Climbing Jacksonville Center
Mon 09:23:04 PM 30.7217 -81.4233 North 478 550 32,800 650 Climbing Jacksonville Center
Mon 09:24:04 PM 30.8483 -81.3633 22° Northeast 471 542 33,000 100 Climbing Jacksonville Center
Mon 09:25:04 PM 30.9747 -81.3031 22° Northeast 477 549 33,000  Level Jacksonville Center
Mon 09:26:04 PM 31.1036 -81.2403 23° Northeast 487 560 33,000  Level Jacksonville Center
Mon 09:27:04 PM 31.2322 -81.1772 23° Northeast 493 567 33,000  Level Jacksonville Center
Mon 09:28:04 PM 31.3731 -81.1042 24° Northeast 493 567 33,000  Level Jacksonville Center
Mon 09:29:04 PM 31.4994 -81.0433 22° Northeast 492 566 33,000  Level Jacksonville Center
Mon 09:30:04 PM 31.6136 -80.9847 24° Northeast 492 566 33,000  Level Jacksonville Center
Mon 09:31:04 PM 31.7567 -80.9183 22° Northeast 498 573 33,000  Level Jacksonville Center
Mon 09:32:04 PM 31.8850 -80.8544 23° Northeast 492 566 33,000  Level Jacksonville Center
Mon 09:33:04 PM 32.0133 -80.7928 22° Northeast 492 566 33,000  Level Jacksonville Center
Mon 09:34:04 PM 32.1417 -80.7286 23° Northeast 492 566 33,000  Level Jacksonville Center
Mon 09:35:04 PM 32.2578 -80.6692 23° Northeast 497 572 33,000  Level Jacksonville Center
Mon 09:36:04 PM 32.3858 -80.6047 23° Northeast 491 565 33,000  Level Jacksonville Center
Mon 09:37:04 PM 32.5164 -80.5397 23° Northeast 496 571 33,000  Level Jacksonville Center
Mon 09:38:04 PM 32.6444 -80.4747 23° Northeast 496 571 33,000  Level Jacksonville Center
Mon 09:39:04 PM 32.7747 -80.4094 23° Northeast 496 571 33,000  Level Jacksonville Center
Mon 09:40:04 PM 32.9028 -80.3442 23° Northeast 496 571 33,000  Level Jacksonville Center
Mon 09:41:04 PM 33.0517 -80.2681 23° Northeast 507 583 33,000  Level Jacksonville Center
Mon 09:42:04 PM 33.1794 -80.2022 23° Northeast 513 590 33,000  Level Jacksonville Center
Mon 09:43:04 PM 33.3117 -80.1361 23° Northeast 513 590 33,000  Level Jacksonville Center
Mon 09:44:04 PM 33.4397 -80.0725 23° Northeast 507 583 33,000  Level Jacksonville Center
Mon 09:45:04 PM 33.5656 -80.0061 24° Northeast 502 578 33,000  Level Jacksonville Center
Mon 09:46:04 PM 33.6892 -79.9422 23° Northeast 491 565 33,000  Level Jacksonville Center
Mon 09:47:04 PM 33.8169 -79.8753 24° Northeast 486 559 33,000  Level Jacksonville Center
Mon 09:48:04 PM 33.9406 -79.8086 24° Northeast 486 559 33,000  Level Jacksonville Center
Mon 09:49:04 PM 34.0683 -79.7439 23° Northeast 491 565 33,000 306 Level Jacksonville Center
Mon 09:51:20 PM 34.3383 -79.6033 23° Northeast 479 551 34,000 554 Climbing Washington Center
Mon 09:52:19 PM 34.4633 -79.5392 23° Northeast 484 557 34,800 504 Climbing Washington Center
Mon 09:53:19 PM 34.5931 -79.4722 23° Northeast 484 557 35,000 99 Climbing Washington Center
Mon 09:54:20 PM 34.7142 -79.3969 27° Northeast 484 557 35,000  Level Washington Center
Mon 09:55:21 PM 34.8317 -79.3114 31° Northeast 489 563 35,000  Level Washington Center
Mon 09:56:19 PM 34.9469 -79.2281 31° Northeast 484 557 35,000  Level Washington Center
Mon 09:57:19 PM 35.0686 -79.1422 30° Northeast 484 557 35,000  Level Washington Center
Mon 09:58:21 PM 35.1856 -79.0583 30° Northeast 484 557 35,000  Level Washington Center
Mon 09:59:20 PM 35.3072 -78.9719 30° Northeast 489 563 35,000  Level Washington Center
Mon 10:00:20 PM 35.4392 -78.8783 30° Northeast 494 568 35,000  Level Washington Center
Mon 10:01:21 PM 35.5647 -78.7889 30° Northeast 499 574 35,000  Level Washington Center
Mon 10:02:20 PM 35.6858 -78.6992 31° Northeast 499 574 35,000  Level Washington Center
Mon 10:03:20 PM 35.8072 -78.6092 31° Northeast 504 580 35,000  Level Washington Center
Mon 10:04:21 PM 35.9242 -78.5211 31° Northeast 504 580 35,000 -151 Level Washington Center
Mon 10:05:19 PM 36.0411 -78.4331 31° Northeast 504 580 34,700 -1,613 Descending Washington Center
Mon 10:06:20 PM 36.1578 -78.3472 31° Northeast 504 580 31,800 -2,902 Descending Washington Center
Mon 10:07:21 PM 36.2831 -78.2536 31° Northeast 504 580 28,800 -2,420 Descending Washington Center
Mon 10:08:19 PM 36.3997 -78.1647 32° Northeast 499 574 27,000 -908 Descending Washington Center
Mon 10:09:20 PM 36.5053 -78.0983 27° Northeast 485 558 27,000  Level Washington Center
Mon 10:10:20 PM 36.6339 -78.0353 21° North 479 551 27,000  Level Washington Center
Mon 10:11:21 PM 36.7625 -77.9667 23° Northeast 484 557 27,000  Level Washington Center
Mon 10:12:21 PM 36.8911 -77.8981 23° Northeast 490 564 27,000  Level Washington Center
Mon 10:13:19 PM 37.0219 -77.8317 22° Northeast 496 571 27,000  Level Washington Center
Mon 10:14:20 PM 37.1525 -77.7625 23° Northeast 502 578 27,000 -397 Level Washington Center
Mon 10:15:20 PM 37.2808 -77.6956 23° Northeast 497 572 26,200 -893 Descending Washington Center
Mon 10:16:21 PM 37.4092 -77.6286 23° Northeast 497 572 25,200 -1,091 Descending Washington Center
Mon 10:17:21 PM 37.5314 -77.5664 22° Northeast 492 566 24,000 -1,846 Descending Washington Center
Mon 10:18:18 PM 37.6533 -77.4986 24° Northeast 480 552 21,600 -2,300 Descending Washington Center
Mon 10:19:21 PM 37.7628 -77.4383 24° Northeast 455 524 19,400 -2,049 Descending Washington Center
Mon 10:20:21 PM 37.8742 -77.3806 22° Northeast 439 505 17,400 -2,136 Descending Washington Center
Mon 10:21:19 PM 37.9772 -77.3225 24° Northeast 413 475 15,200 -2,288 Descending Washington Center
Mon 10:22:19 PM 38.0803 -77.2722 21° North 399 459 12,900 -1,983 Descending Washington Center
Mon 10:23:20 PM 38.1808 -77.2214 22° Northeast 394 453 11,200 -1,289 Descending Washington Center
Mon 10:24:20 PM 38.2756 -77.1653 25° Northeast 382 440 10,300 -645 Descending Washington Center
Mon 10:25:21 PM 38.3800 -77.1383 11° North 375 432 9,900 -202 Descending Washington Center
Mon 10:26:19 PM 38.4889 -77.1169 North 375 432 9,900 51 Level Washington Center
Mon 10:27:19 PM 38.5933 -77.0950 North 380 437 10,000 62 Climbing Washington Center
Mon 10:27:56 PM 38.6667 -77.0833 North 351 404 10,000 -804 Level Potomac TRACON
Mon 10:28:56 PM 38.7500 -77.0667 North 319 367 8,700 -1,550 Descending Potomac TRACON
Mon 10:29:56 PM 38.8333 -77.1167 335° Northwest 322 371 6,900 -1,789 Descending Potomac TRACON
Mon 10:30:50 PM 38.8833 -77.1833 314° West 286 329 5,300 -1,737 Descending Potomac TRACON
Mon 10:31:50 PM 38.9333 -77.2500 314° West 269 310 3,600 -1,039 Descending Potomac TRACON
Mon 10:32:57 PM 38.9833 -77.2000 38° Northeast 253 291 3,100 -347 Descending Potomac TRACON
Mon 10:33:51 PM 38.9500 -77.1333 123° Southeast 212 244 2,900 -632 Descending Potomac TRACON
Mon 10:34:51 PM 38.9167 -77.1000 142° Southeast 160 184 1,900 -992 Descending Potomac TRACON
Mon 10:35:52 PM 38.9000 -77.0667 123° Southeast 135 155 900 -984 Descending Potomac TRACON
Mon 10:37:00 PM 38.8500 -77.0333 111° Southeast  Level FlightAware Approximate
Mon 10:44:00 PM 38.8519 -77.0377 111° Southeast  Level Estimated

Login

Don't have an account? Register now (free) for customized features, flight alerts, and more!